createdAt,value
2019-04-20T00:00:01.562Z,15.318909
2019-04-20T00:00:15.757Z,15.318909
2019-04-20T00:00:37.019Z,15.318909
2019-04-20T00:00:54.992Z,15.308838
2019-04-20T00:01:16.673Z,15.308838
2019-04-20T00:01:32.566Z,15.308838
2019-04-20T00:01:49.226Z,15.288696
2019-04-20T00:02:12.418Z,15.288696
2019-04-20T00:02:26.188Z,15.318909
2019-04-20T00:02:48.390Z,15.308838
2019-04-20T00:03:02.170Z,15.308838
2019-04-20T00:03:23.531Z,15.308838
2019-04-20T00:03:42.259Z,15.308838
2019-04-20T00:03:57.728Z,15.318909
2019-04-20T00:04:22.477Z,15.308838
2019-04-20T00:04:36.035Z,15.308838
2019-04-20T00:04:53.699Z,15.308838
2019-04-20T00:05:11.678Z,15.318909
2019-04-20T00:05:29.655Z,15.318909
2019-04-20T00:05:47.669Z,15.308838
2019-04-20T00:06:05.655Z,15.308838
2019-04-20T00:06:23.661Z,15.288696
2019-04-20T00:06:46.645Z,15.288696
2019-04-20T00:07:00.612Z,15.288696
2019-04-20T00:07:24.497Z,15.288696
2019-04-20T00:07:38.664Z,15.278625
2019-04-20T00:08:01.087Z,15.288696
2019-04-20T00:08:21.422Z,15.288696
2019-04-20T00:08:38.133Z,15.288696
2019-04-20T00:08:59.677Z,15.308838
2019-04-20T00:09:19.265Z,15.308838
2019-04-20T00:09:35.234Z,15.308838
2019-04-20T00:09:57.910Z,15.308838
2019-04-20T00:10:15.471Z,15.308838
2019-04-20T00:10:30.697Z,15.288696
2019-04-20T00:10:56.831Z,15.288696
2019-04-20T00:11:13.055Z,15.288696
2019-04-20T00:11:35.294Z,15.278625
2019-04-20T00:11:56.417Z,15.278625
2019-04-20T00:12:12.577Z,15.278625
2019-04-20T00:12:36.408Z,15.268555
2019-04-20T00:12:53.037Z,15.278625
2019-04-20T00:13:11.333Z,15.278625
2019-04-20T00:13:30.735Z,15.268555
2019-04-20T00:13:47.541Z,15.268555
2019-04-20T00:14:05.346Z,15.248413
2019-04-20T00:14:22.310Z,15.228271
2019-04-20T00:14:37.810Z,15.228271
2019-04-20T00:14:55.373Z,15.228271
2019-04-20T00:15:14.317Z,15.228271
2019-04-20T00:15:33.429Z,15.20813
2019-04-20T00:15:52.386Z,15.198059
2019-04-20T00:16:11.388Z,15.187988
2019-04-20T00:16:30.342Z,15.167847
2019-04-20T00:16:49.339Z,15.127563
2019-04-20T00:17:08.317Z,15.137634
2019-04-20T00:17:27.507Z,15.137634
2019-04-20T00:17:52.177Z,15.127563
2019-04-20T00:18:07.101Z,15.107422
2019-04-20T00:18:25.619Z,15.097351
2019-04-20T00:18:48.787Z,15.107422
2019-04-20T00:19:03.935Z,15.08728
2019-04-20T00:19:29.060Z,15.067139
2019-04-20T00:19:46.156Z,15.057068
2019-04-20T00:20:04.596Z,15.057068
2019-04-20T00:20:24.528Z,15.016785
2019-04-20T00:20:38.991Z,15.016785
2019-04-20T00:21:03.782Z,15.016785
2019-04-20T00:21:17.883Z,14.986572
2019-04-20T00:21:42.532Z,14.986572
2019-04-20T00:22:00.209Z,14.986572
2019-04-20T00:22:15.587Z,14.976501
2019-04-20T00:22:39.242Z,14.946289
2019-04-20T00:22:53.935Z,14.936218
2019-04-20T00:23:12.250Z,14.936218
2019-04-20T00:23:35.122Z,14.936218
2019-04-20T00:23:50.089Z,14.946289
2019-04-20T00:24:14.701Z,14.916077
2019-04-20T00:24:30.933Z,14.916077
2019-04-20T00:24:49.551Z,14.916077
2019-04-20T00:25:10.367Z,14.916077
2019-04-20T00:25:38.487Z,14.885864
2019-04-20T00:25:54.230Z,14.906006
2019-04-20T00:26:10.774Z,14.875793
2019-04-20T00:26:33.729Z,14.875793
2019-04-20T00:27:25.239Z,14.875793
2019-04-20T00:27:36.877Z,14.875793
2019-04-20T00:27:59.223Z,14.875793
2019-04-20T00:28:15.993Z,14.875793
2019-04-20T00:28:28.944Z,14.83551
2019-04-20T00:28:50.671Z,14.83551
2019-04-20T00:29:10.086Z,14.825439
2019-04-20T00:29:29.070Z,14.805298
2019-04-20T00:29:49.242Z,14.825439
2019-04-20T00:30:06.449Z,14.795227
2019-04-20T00:30:31.286Z,14.795227
2019-04-20T00:30:46.531Z,14.795227
2019-04-20T00:31:05.339Z,14.775085
2019-04-20T00:31:23.135Z,14.765015
2019-04-20T00:31:39.831Z,14.754944
2019-04-20T00:31:56.455Z,14.754944
2019-04-20T00:32:14.201Z,14.734802
2019-04-20T00:32:37.295Z,14.724731
2019-04-20T00:33:09.272Z,14.694519
2019-04-20T00:33:30.749Z,14.684448
2019-04-20T00:33:50.322Z,14.654236
2019-04-20T00:34:06.523Z,14.654236
2019-04-20T00:34:22.768Z,14.644165
2019-04-20T00:34:38.816Z,14.644165
2019-04-20T00:34:54.620Z,14.624023
2019-04-20T00:35:13.510Z,14.624023
2019-04-20T00:35:32.614Z,14.613953
2019-04-20T00:35:51.590Z,14.603882
2019-04-20T00:36:10.580Z,14.603882
2019-04-20T00:36:29.588Z,14.603882
2019-04-20T00:36:48.465Z,14.58374
2019-04-20T00:37:07.564Z,14.573669
2019-04-20T00:37:26.486Z,14.573669
2019-04-20T00:37:45.487Z,14.573669
2019-04-20T00:38:04.418Z,14.553528
2019-04-20T00:38:26.810Z,14.553528
2019-04-20T00:38:48.228Z,14.553528
2019-04-20T00:39:04.469Z,14.553528
2019-04-20T00:39:20.568Z,14.543457
2019-04-20T00:39:39.305Z,14.523315
2019-04-20T00:39:58.374Z,14.513245
2019-04-20T00:40:18.242Z,14.513245
2019-04-20T00:40:38.101Z,14.503174
2019-04-20T00:41:02.597Z,14.513245
2019-04-20T00:41:17.590Z,14.503174
2019-04-20T00:41:42.197Z,14.503174
2019-04-20T00:41:58.668Z,14.472961
2019-04-20T00:42:14.865Z,14.472961
2019-04-20T00:42:39.026Z,14.462891
2019-04-20T00:42:53.627Z,14.45282
2019-04-20T00:43:12.909Z,14.45282
2019-04-20T00:43:32.764Z,14.432678
2019-04-20T00:43:47.847Z,14.432678
2019-04-20T00:44:12.922Z,14.432678
2019-04-20T00:44:30.263Z,14.432678
2019-04-20T00:44:46.783Z,14.432678
2019-04-20T00:45:11.873Z,14.422607
2019-04-20T00:45:27.147Z,14.402466
2019-04-20T00:45:46.568Z,14.392395
2019-04-20T00:46:07.837Z,14.392395
2019-04-20T00:46:24.854Z,14.372253
2019-04-20T00:46:50.846Z,14.372253
2019-04-20T00:47:08.319Z,14.33197
2019-04-20T00:47:30.294Z,14.33197
2019-04-20T00:47:45.298Z,14.352112
2019-04-20T00:48:01.073Z,14.33197
2019-04-20T00:48:22.294Z,14.321899
2019-04-20T00:48:41.246Z,14.291687
2019-04-20T00:48:58.900Z,14.281616
2019-04-20T00:49:25.218Z,14.271545
2019-04-20T00:49:44.389Z,14.271545
2019-04-20T00:50:00.788Z,14.271545
2019-04-20T00:50:24.379Z,14.251404
2019-04-20T00:50:40.089Z,14.221191
2019-04-20T00:50:59.138Z,14.211121
2019-04-20T00:51:23.726Z,14.180908
2019-04-20T00:51:38.945Z,14.20105
2019-04-20T00:51:57.195Z,14.170837
2019-04-20T00:52:32.510Z,14.170837
2019-04-20T00:52:53.873Z,14.180908
2019-04-20T00:53:09.975Z,14.150696
2019-04-20T00:53:25.681Z,14.140625
2019-04-20T00:53:41.269Z,14.120483
2019-04-20T00:53:57.551Z,14.100342
2019-04-20T00:54:14.657Z,14.100342
2019-04-20T00:54:33.631Z,14.100342
2019-04-20T00:54:52.606Z,14.100342
2019-04-20T00:55:11.545Z,14.100342
2019-04-20T00:55:30.514Z,14.090271
2019-04-20T00:55:49.611Z,14.090271
2019-04-20T00:56:08.644Z,14.070129
2019-04-20T00:56:27.575Z,14.070129
2019-04-20T00:56:46.553Z,14.070129
2019-04-20T00:57:13.117Z,14.090271
2019-04-20T00:57:34.533Z,14.070129
2019-04-20T00:57:49.942Z,14.090271
2019-04-20T00:58:11.475Z,14.070129
2019-04-20T00:58:28.721Z,14.060059
2019-04-20T00:58:51.617Z,14.060059
2019-04-20T00:59:12.856Z,14.060059
2019-04-20T00:59:31.407Z,14.039917
2019-04-20T00:59:58.887Z,14.039917
2019-04-20T01:00:16.244Z,14.039917
2019-04-20T01:00:30.894Z,14.029846
2019-04-20T01:00:59.706Z,14.039917
2019-04-20T01:01:12.621Z,14.029846
2019-04-20T01:01:30.654Z,14.019775
2019-04-20T01:01:51.717Z,14.019775
2019-04-20T01:02:08.775Z,13.999634
2019-04-20T01:02:20.358Z,13.999634
2019-04-20T01:02:40.214Z,13.999634
2019-04-20T01:02:58.230Z,13.989563
2019-04-20T01:03:20.624Z,13.989563
2019-04-20T01:03:38.598Z,13.989563
2019-04-20T01:04:05.398Z,13.969421
2019-04-20T01:04:19.699Z,13.969421
2019-04-20T01:04:40.560Z,13.989563
2019-04-20T01:04:57.681Z,13.969421
2019-04-20T01:05:17.776Z,13.969421
2019-04-20T01:05:33.192Z,13.959351
2019-04-20T01:05:58.009Z,13.959351
2019-04-20T01:06:16.109Z,13.94928
2019-04-20T01:06:31.356Z,13.959351
2019-04-20T01:06:49.893Z,13.908997
2019-04-20T01:07:08.122Z,13.908997
2019-04-20T01:07:26.220Z,13.919067
2019-04-20T01:07:41.891Z,13.919067
2019-04-20T01:07:56.912Z,13.919067
2019-04-20T01:08:11.682Z,13.908997
2019-04-20T01:08:30.632Z,13.919067
2019-04-20T01:08:49.664Z,13.888855
2019-04-20T01:09:08.630Z,13.878784
2019-04-20T01:09:27.614Z,13.868713
2019-04-20T01:09:46.606Z,13.848572
2019-04-20T01:10:05.697Z,13.848572
2019-04-20T01:10:28.118Z,13.838501
2019-04-20T01:10:47.118Z,13.848572
2019-04-20T01:11:03.029Z,13.808289
2019-04-20T01:11:24.386Z,13.808289
2019-04-20T01:11:43.916Z,13.788147
2019-04-20T01:12:03.130Z,13.788147
2019-04-20T01:12:22.883Z,13.778076
2019-04-20T01:12:39.152Z,13.768005
2019-04-20T01:13:01.051Z,13.747864
2019-04-20T01:13:18.641Z,13.747864
2019-04-20T01:13:41.985Z,13.727722
2019-04-20T01:13:58.789Z,13.707581
2019-04-20T01:14:14.516Z,13.69751
2019-04-20T01:14:40.468Z,13.69751
2019-04-20T01:14:55.602Z,13.687439
2019-04-20T01:15:11.720Z,13.667297
2019-04-20T01:15:37.421Z,13.667297
2019-04-20T01:15:55.037Z,13.657227
2019-04-20T01:16:18.389Z,13.667297
2019-04-20T01:16:35.267Z,13.657227
2019-04-20T01:16:51.167Z,13.667297
2019-04-20T01:20:37.726Z,13.637085
2019-04-20T01:20:57.934Z,13.616943
2019-04-20T01:21:19.796Z,13.627014
2019-04-20T01:21:35.405Z,13.627014
2019-04-20T01:21:59.574Z,13.596802
2019-04-20T01:22:17.018Z,13.596802
2019-04-20T01:22:40.055Z,13.586731
2019-04-20T01:22:54.481Z,13.566589
2019-04-20T01:23:13.834Z,13.566589
2019-04-20T01:23:35.356Z,13.566589
2019-04-20T01:23:53.001Z,13.546448
2019-04-20T01:24:08.736Z,13.546448
2019-04-20T01:24:31.242Z,13.536377
2019-04-20T01:24:46.896Z,13.536377
2019-04-20T01:25:09.516Z,13.536377
2019-04-20T01:25:28.845Z,13.516235
2019-04-20T01:25:44.108Z,13.506165
2019-04-20T01:26:06.013Z,13.506165
2019-04-20T01:26:21.321Z,13.506165
2019-04-20T01:26:43.286Z,13.486023
2019-04-20T01:27:00.697Z,13.506165
2019-04-20T01:27:27.066Z,13.486023
2019-04-20T01:27:47.344Z,13.486023
2019-04-20T01:28:11.514Z,13.506165
2019-04-20T01:28:30.860Z,13.506165
2019-04-20T01:28:46.212Z,13.506165
2019-04-20T01:29:01.460Z,13.475952
2019-04-20T01:29:21.401Z,13.486023
2019-04-20T01:29:35.475Z,13.486023
2019-04-20T01:29:52.741Z,13.475952
2019-04-20T01:30:17.033Z,13.475952
2019-04-20T01:30:33.845Z,13.455811
2019-04-20T01:30:59.854Z,13.455811
2019-04-20T01:31:14.574Z,13.44574
2019-04-20T01:31:31.935Z,13.435669
2019-04-20T01:31:55.507Z,13.435669
2019-04-20T01:32:10.306Z,13.435669
2019-04-20T01:32:29.600Z,13.44574
2019-04-20T01:32:54.921Z,13.435669
2019-04-20T01:33:12.323Z,13.435669
2019-04-20T01:33:31.553Z,13.455811
2019-04-20T01:33:45.972Z,13.44574
2019-04-20T01:34:02.915Z,13.455811
2019-04-20T01:34:26.406Z,13.455811
2019-04-20T01:34:44.956Z,13.435669
2019-04-20T01:35:02.053Z,13.415527
2019-04-20T01:35:29.907Z,13.405457
2019-04-20T01:35:43.765Z,13.435669
2019-04-20T01:36:01.763Z,13.435669
2019-04-20T01:36:25.253Z,13.405457
2019-04-20T01:36:45.581Z,13.415527
2019-04-20T01:37:04.211Z,13.405457
2019-04-20T01:37:20.714Z,13.385315
2019-04-20T01:37:35.942Z,13.385315
2019-04-20T01:38:00.047Z,13.385315
2019-04-20T01:38:20.752Z,13.385315
2019-04-20T01:38:34.059Z,13.375244
2019-04-20T01:38:51.151Z,13.355103
2019-04-20T01:39:10.154Z,13.375244
2019-04-20T01:39:28.232Z,13.375244
2019-04-20T01:39:44.187Z,13.355103
2019-04-20T01:39:59.156Z,13.334961
2019-04-20T01:40:15.710Z,13.32489
2019-04-20T01:40:34.785Z,13.334961
2019-04-20T01:40:53.755Z,13.334961
2019-04-20T01:41:12.797Z,13.32489
2019-04-20T01:41:31.762Z,13.32489
2019-04-20T01:41:50.743Z,13.304749
2019-04-20T01:42:09.682Z,13.294678
2019-04-20T01:42:28.687Z,13.284607
2019-04-20T01:42:47.706Z,13.264465
2019-04-20T01:43:06.742Z,13.254395
2019-04-20T01:43:25.797Z,13.234253
2019-04-20T01:43:44.802Z,13.234253
2019-04-20T01:44:03.764Z,13.234253
2019-04-20T01:44:26.001Z,13.224182
2019-04-20T01:44:45.225Z,13.204041
2019-04-20T01:45:00.718Z,13.173828
2019-04-20T01:45:25.565Z,13.173828
2019-04-20T01:45:40.849Z,13.153687
2019-04-20T01:46:04.694Z,13.153687
2019-04-20T01:46:20.476Z,13.143616
2019-04-20T01:46:39.034Z,13.143616
2019-04-20T01:46:58.617Z,13.143616
2019-04-20T01:47:13.798Z,13.123474
2019-04-20T01:47:39.626Z,13.123474
2019-04-20T01:47:54.817Z,13.113403
2019-04-20T01:48:13.908Z,13.113403
2019-04-20T01:48:33.900Z,13.103333
2019-04-20T01:48:49.319Z,13.07312
2019-04-20T01:49:13.526Z,13.07312
2019-04-20T01:49:30.503Z,13.052979
2019-04-20T01:49:47.470Z,13.052979
2019-04-20T01:50:10.211Z,13.042908
2019-04-20T01:50:28.324Z,13.042908
2019-04-20T01:50:48.836Z,13.042908
2019-04-20T01:51:09.710Z,13.032837
2019-04-20T01:51:26.783Z,13.032837
2019-04-20T01:51:52.334Z,13.012695
2019-04-20T01:52:06.979Z,13.032837
2019-04-20T01:52:22.874Z,13.012695
2019-04-20T01:52:50.277Z,13.012695
2019-04-20T01:53:05.461Z,13.002625
2019-04-20T01:53:26.243Z,13.012695
2019-04-20T01:53:50.182Z,13.002625
2019-04-20T01:54:05.097Z,13.002625
2019-04-20T01:54:25.742Z,12.972412
2019-04-20T01:54:52.138Z,12.972412
2019-04-20T01:55:11.250Z,12.962341
2019-04-20T01:55:27.439Z,12.972412
2019-04-20T01:55:45.340Z,12.962341
2019-04-20T01:56:00.959Z,12.952271
2019-04-20T01:56:21.593Z,12.932129
2019-04-20T01:56:39.970Z,12.922058
2019-04-20T01:56:54.373Z,12.891846
2019-04-20T01:57:13.560Z,12.891846
2019-04-20T01:57:29.758Z,12.861633
2019-04-20T01:57:57.105Z,12.851562
2019-04-20T01:58:17.195Z,12.831421
2019-04-20T01:58:39.320Z,12.851562
2019-04-20T01:58:58.037Z,12.831421
2019-04-20T01:59:27.358Z,12.82135
2019-04-20T01:59:45.856Z,12.791138
2019-04-20T02:00:03.526Z,12.781067
2019-04-20T02:00:20.991Z,12.791138
2019-04-20T02:00:37.228Z,12.750854
2019-04-20T02:00:54.733Z,12.770996
2019-04-20T02:01:17.689Z,12.770996
2019-04-20T02:01:34.216Z,12.750854
2019-04-20T02:01:55.573Z,12.770996
2019-04-20T02:02:13.009Z,12.750854
2019-04-20T02:02:28.152Z,12.750854
2019-04-20T02:02:52.006Z,12.750854
2019-04-20T02:03:06.751Z,12.750854
2019-04-20T02:03:30.987Z,12.740784
2019-04-20T02:03:47.058Z,12.720642
2019-04-20T02:04:03.642Z,12.750854
2019-04-20T02:04:27.798Z,12.740784
2019-04-20T02:04:43.882Z,12.720642
2019-04-20T02:05:07.005Z,12.740784
2019-04-20T02:05:24.591Z,12.720642
2019-04-20T02:05:38.954Z,12.720642
2019-04-20T02:06:03.235Z,12.720642
2019-04-20T02:06:18.661Z,12.710571
2019-04-20T02:06:39.763Z,12.710571
2019-04-20T02:06:56.714Z,12.7005
2019-04-20T02:07:12.428Z,12.7005
2019-04-20T02:07:37.274Z,12.680359
2019-04-20T02:07:52.618Z,12.680359
2019-04-20T02:08:14.375Z,12.680359
2019-04-20T02:08:29.819Z,12.680359
2019-04-20T02:08:50.791Z,12.680359
2019-04-20T02:09:11.810Z,12.680359
2019-04-20T02:09:27.917Z,12.670288
2019-04-20T02:09:50.273Z,12.680359
2019-04-20T02:10:06.902Z,12.680359
2019-04-20T02:10:31.768Z,12.680359
2019-04-20T02:10:47.436Z,12.680359
2019-04-20T02:11:02.606Z,12.680359
2019-04-20T02:11:25.909Z,12.670288
2019-04-20T02:11:41.302Z,12.670288
2019-04-20T02:12:04.716Z,12.680359
2019-04-20T02:12:22.232Z,12.680359
2019-04-20T02:12:37.870Z,12.680359
2019-04-20T02:12:58.260Z,12.7005
2019-04-20T02:13:14.116Z,12.680359
2019-04-20T02:13:40.049Z,12.650146
2019-04-20T02:13:57.065Z,12.670288
2019-04-20T02:14:12.404Z,12.680359
2019-04-20T02:14:37.607Z,12.680359
2019-04-20T02:14:53.984Z,12.7005
2019-04-20T02:15:17.658Z,12.680359
2019-04-20T02:15:35.104Z,12.7005
2019-04-20T02:15:51.126Z,12.650146
2019-04-20T02:16:15.662Z,12.650146
2019-04-20T02:16:31.295Z,12.670288
2019-04-20T02:16:47.936Z,12.650146
2019-04-20T02:17:09.439Z,12.640076
2019-04-20T02:17:29.683Z,12.650146
2019-04-20T02:17:46.526Z,12.619934
2019-04-20T02:18:10.693Z,12.619934
2019-04-20T02:18:31.669Z,12.599792
2019-04-20T02:18:48.046Z,12.589722
2019-04-20T02:19:13.005Z,12.589722
2019-04-20T02:19:30.005Z,12.589722
2019-04-20T02:19:46.126Z,12.589722
2019-04-20T02:20:09.409Z,12.589722
2019-04-20T02:20:32.882Z,12.559509
2019-04-20T02:20:48.134Z,12.559509
2019-04-20T02:21:09.234Z,12.559509
2019-04-20T02:21:27.286Z,12.559509
2019-04-20T02:21:46.523Z,12.539368
2019-04-20T02:22:02.306Z,12.559509
2019-04-20T02:22:20.198Z,12.559509
2019-04-20T02:22:41.988Z,12.559509
2019-04-20T02:22:58.721Z,12.559509
2019-04-20T02:23:17.170Z,12.559509
2019-04-20T02:23:33.484Z,12.539368
2019-04-20T02:23:49.600Z,12.519226
2019-04-20T02:24:04.588Z,12.499084
2019-04-20T02:24:20.338Z,12.519226
2019-04-20T02:24:39.426Z,12.489014
2019-04-20T02:24:58.317Z,12.468872
2019-04-20T02:25:17.417Z,12.458801
2019-04-20T02:25:36.481Z,12.458801
2019-04-20T02:25:55.491Z,12.468872
2019-04-20T02:26:14.646Z,12.468872
2019-04-20T02:26:33.437Z,12.468872
2019-04-20T02:26:52.552Z,12.458801
2019-04-20T02:27:11.386Z,12.458801
2019-04-20T02:27:38.481Z,12.458801
2019-04-20T02:27:53.677Z,12.44873
2019-04-20T02:28:25.462Z,12.44873
2019-04-20T02:28:53.436Z,12.418518
2019-04-20T02:29:12.041Z,12.418518
2019-04-20T02:29:30.351Z,12.408447
2019-04-20T02:29:44.141Z,12.408447
2019-04-20T02:30:06.105Z,12.418518
2019-04-20T02:30:29.622Z,12.408447
2019-04-20T02:30:55.091Z,12.388306
2019-04-20T02:31:12.971Z,12.388306
2019-04-20T02:31:40.559Z,12.388306
2019-04-20T02:32:09.876Z,12.408447
2019-04-20T02:32:35.738Z,12.368164
2019-04-20T02:32:44.988Z,12.368164
2019-04-20T02:33:16.398Z,12.337952
2019-04-20T02:33:34.247Z,12.337952
2019-04-20T02:34:03.301Z,12.31781
2019-04-20T02:34:23.673Z,12.287598
2019-04-20T02:34:59.062Z,12.277527
2019-04-20T02:35:15.724Z,12.267456
2019-04-20T02:35:42.375Z,12.267456
2019-04-20T02:36:00.378Z,12.267456
2019-04-20T02:36:27.236Z,12.267456
2019-04-20T02:36:57.687Z,12.237244
2019-04-20T02:37:35.565Z,12.227173
2019-04-20T02:37:48.465Z,12.237244
2019-04-20T02:38:02.650Z,12.227173
2019-04-20T02:38:35.874Z,12.227173
2019-04-20T02:39:20.751Z,12.207031
2019-04-20T02:39:50.677Z,12.207031
2019-04-20T02:40:25.041Z,12.227173
2019-04-20T02:40:56.588Z,12.19696
2019-04-20T02:41:27.362Z,12.207031
2019-04-20T02:41:43.809Z,12.207031
2019-04-20T02:41:57.087Z,12.19696
2019-04-20T02:42:22.294Z,12.18689
2019-04-20T02:42:44.410Z,12.18689
2019-04-20T02:43:14.574Z,12.166748
2019-04-20T02:43:46.290Z,12.166748
2019-04-20T02:44:05.739Z,12.166748
2019-04-20T02:44:21.173Z,12.166748
2019-04-20T02:44:45.849Z,12.156677
2019-04-20T02:44:58.494Z,12.156677
2019-04-20T02:45:17.184Z,12.156677
2019-04-20T02:45:57.180Z,12.156677
2019-04-20T02:46:24.031Z,12.136536
2019-04-20T02:46:46.679Z,12.136536
2019-04-20T02:47:06.726Z,12.126465
2019-04-20T02:47:29.943Z,12.136536
2019-04-20T02:48:13.234Z,12.136536
2019-04-20T02:48:39.128Z,12.156677
2019-04-20T02:49:00.434Z,12.136536
2019-04-20T02:49:39.970Z,12.156677
2019-04-20T02:49:56.271Z,12.166748
2019-04-20T02:50:12.303Z,12.156677
2019-04-20T02:50:49.263Z,12.156677
2019-04-20T02:51:12.299Z,12.156677
2019-04-20T02:51:32.807Z,12.166748
2019-04-20T02:52:02.254Z,12.136536
2019-04-20T02:52:26.814Z,12.136536
2019-04-20T02:52:37.857Z,12.126465
2019-04-20T02:52:55.714Z,12.116394
2019-04-20T02:53:19.877Z,12.116394
2019-04-20T02:53:29.524Z,12.116394
2019-04-20T02:53:49.514Z,12.096252
2019-04-20T02:54:10.854Z,12.096252
2019-04-20T02:54:18.356Z,12.06604
2019-04-20T02:54:44.755Z,12.06604
2019-04-20T02:55:00.134Z,12.086182
2019-04-20T02:55:22.325Z,12.06604
2019-04-20T02:55:39.557Z,12.06604
2019-04-20T02:55:55.170Z,12.045898
2019-04-20T02:56:38.930Z,12.045898
2019-04-20T02:56:56.783Z,12.045898
2019-04-20T02:57:17.584Z,12.015686
2019-04-20T02:57:52.591Z,12.005615
2019-04-20T02:58:06.561Z,11.985474
2019-04-20T02:58:30.960Z,12.005615
2019-04-20T02:58:49.735Z,12.015686
2019-04-20T03:00:05.135Z,11.975403
2019-04-20T03:00:17.650Z,11.975403
2019-04-20T03:00:33.450Z,11.975403
2019-04-20T03:00:52.074Z,11.955261
2019-04-20T03:01:09.479Z,11.94519
2019-04-20T03:01:26.541Z,11.94519
2019-04-20T03:01:44.909Z,11.93512
2019-04-20T03:02:03.978Z,11.93512
2019-04-20T03:02:21.690Z,11.904907
2019-04-20T03:02:38.117Z,11.904907
2019-04-20T03:02:55.785Z,11.914978
2019-04-20T03:03:13.346Z,11.914978
2019-04-20T03:03:30.592Z,11.914978
2019-04-20T03:03:46.792Z,11.914978
2019-04-20T03:04:03.254Z,11.904907
2019-04-20T03:04:28.846Z,11.904907
2019-04-20T03:04:45.715Z,11.914978
2019-04-20T03:05:09.662Z,11.914978
2019-04-20T03:05:29.198Z,11.904907
2019-04-20T03:05:43.104Z,11.904907
2019-04-20T03:06:08.343Z,11.904907
2019-04-20T03:06:26.160Z,11.904907
2019-04-20T03:06:44.312Z,11.864624
2019-04-20T03:07:07.782Z,11.864624
2019-04-20T03:07:23.078Z,11.864624
2019-04-20T03:07:49.933Z,11.864624
2019-04-20T03:08:08.334Z,11.864624
2019-04-20T03:08:21.980Z,11.864624
2019-04-20T03:08:50.999Z,11.884766
2019-04-20T03:09:08.546Z,11.864624
2019-04-20T03:09:25.193Z,11.884766
2019-04-20T03:09:43.237Z,11.854553
2019-04-20T03:10:00.604Z,11.864624
2019-04-20T03:10:20.624Z,11.854553
2019-04-20T03:10:45.953Z,11.834412
2019-04-20T03:11:07.845Z,11.834412
2019-04-20T03:11:20.704Z,11.854553
2019-04-20T03:11:46.172Z,11.834412
2019-04-20T03:12:23.222Z,11.824341
2019-04-20T03:12:38.241Z,11.834412
2019-04-20T03:12:54.811Z,11.834412
2019-04-20T03:13:14.037Z,11.824341
2019-04-20T03:13:31.860Z,11.824341
2019-04-20T03:13:48.383Z,11.824341
2019-04-20T03:14:09.100Z,11.834412
2019-04-20T03:14:26.371Z,11.804199
2019-04-20T03:14:42.172Z,11.804199
2019-04-20T03:15:01.494Z,11.824341
2019-04-20T03:15:25.022Z,11.804199
2019-04-20T03:15:47.967Z,11.824341
2019-04-20T03:16:03.294Z,11.834412
2019-04-20T03:16:24.037Z,11.824341
2019-04-20T03:16:38.427Z,11.824341
2019-04-20T03:16:58.508Z,11.804199
2019-04-20T03:17:26.713Z,11.804199
2019-04-20T03:17:44.285Z,11.804199
2019-04-20T03:18:02.048Z,11.794128
2019-04-20T03:18:19.037Z,11.794128
2019-04-20T03:18:34.842Z,11.794128
2019-04-20T03:18:53.222Z,11.794128
2019-04-20T03:19:11.620Z,11.794128
2019-04-20T03:19:31.144Z,11.804199
2019-04-20T03:19:47.281Z,11.794128
2019-04-20T03:20:08.235Z,11.794128
2019-04-20T03:20:35.892Z,11.804199
2019-04-20T03:20:51.754Z,11.784058
2019-04-20T03:21:10.946Z,11.763916
2019-04-20T03:21:31.266Z,11.763916
2019-04-20T03:21:51.152Z,11.733704
2019-04-20T03:22:13.342Z,11.753845
2019-04-20T03:22:39.167Z,11.723633
2019-04-20T03:23:10.074Z,11.733704
2019-04-20T03:23:29.569Z,11.703491
2019-04-20T03:23:49.831Z,11.703491
2019-04-20T03:24:11.533Z,11.69342
2019-04-20T03:24:18.651Z,11.673279
2019-04-20T03:24:48.411Z,11.653137
2019-04-20T03:25:16.673Z,11.643066
2019-04-20T03:25:22.085Z,11.622925
2019-04-20T03:25:35.583Z,11.622925
2019-04-20T03:25:58.154Z,11.612854
2019-04-20T03:26:15.977Z,11.612854
2019-04-20T03:26:32.317Z,11.612854
2019-04-20T03:26:46.051Z,11.612854
2019-04-20T03:27:10.665Z,11.602783
2019-04-20T03:27:29.131Z,11.582642
2019-04-20T03:27:45.709Z,11.572571
2019-04-20T03:28:04.855Z,11.542358
2019-04-20T03:28:23.403Z,11.552429
2019-04-20T03:28:42.750Z,11.552429
2019-04-20T03:29:00.961Z,11.542358
2019-04-20T03:29:20.340Z,11.542358
2019-04-20T03:29:46.760Z,11.542358
2019-04-20T03:30:00.353Z,11.542358
2019-04-20T03:31:03.681Z,11.542358
2019-04-20T03:31:28.789Z,11.542358
2019-04-20T03:31:52.102Z,11.542358
2019-04-20T03:32:03.008Z,11.542358
2019-04-20T03:32:24.710Z,11.522217
2019-04-20T03:32:49.556Z,11.552429
2019-04-20T03:33:11.394Z,11.512146
2019-04-20T03:33:30.617Z,11.522217
2019-04-20T03:34:22.374Z,11.492004
2019-04-20T03:34:54.718Z,11.492004
2019-04-20T03:35:48.850Z,11.492004
2019-04-20T03:35:56.876Z,11.512146
2019-04-20T03:36:17.815Z,11.471863
2019-04-20T03:36:33.373Z,11.471863
2019-04-20T03:36:52.908Z,11.461792
2019-04-20T03:37:06.687Z,11.471863
2019-04-20T03:37:19.168Z,11.44165
2019-04-20T03:37:42.024Z,11.461792
2019-04-20T03:38:19.616Z,11.471863
2019-04-20T03:38:35.674Z,11.461792
2019-04-20T03:38:57.154Z,11.44165
2019-04-20T03:39:12.528Z,11.44165
2019-04-20T03:39:31.172Z,11.44165
2019-04-20T03:39:47.487Z,11.44165
2019-04-20T03:40:08.162Z,11.44165
2019-04-20T03:40:23.991Z,11.461792
2019-04-20T03:40:45.091Z,11.471863
2019-04-20T03:41:01.069Z,11.471863
2019-04-20T03:41:19.242Z,11.461792
2019-04-20T03:41:34.835Z,11.461792
2019-04-20T03:41:49.234Z,11.461792
2019-04-20T03:42:07.478Z,11.44165
2019-04-20T03:42:25.438Z,11.44165
2019-04-20T03:42:45.393Z,11.44165
2019-04-20T03:43:04.384Z,11.44165
2019-04-20T03:43:23.296Z,11.44165
2019-04-20T03:43:42.340Z,11.43158
2019-04-20T03:44:06.398Z,11.43158
2019-04-20T03:44:24.301Z,11.43158
2019-04-20T03:44:39.678Z,11.43158
2019-04-20T03:45:04.012Z,11.44165
2019-04-20T03:45:19.882Z,11.44165
2019-04-20T03:45:44.356Z,11.43158
2019-04-20T03:46:01.341Z,11.43158
2019-04-20T03:46:16.313Z,11.43158
2019-04-20T03:46:41.855Z,11.43158
2019-04-20T03:46:57.879Z,11.43158
2019-04-20T03:47:14.467Z,11.421509
2019-04-20T03:47:37.699Z,11.371155
2019-04-20T03:48:00.579Z,11.361084
2019-04-20T03:48:19.122Z,11.361084
2019-04-20T03:48:40.610Z,11.351013
2019-04-20T03:48:58.415Z,11.361084
2019-04-20T03:49:25.380Z,11.361084
2019-04-20T03:49:47.901Z,11.351013
2019-04-20T03:50:04.467Z,11.361084
2019-04-20T03:50:23.860Z,11.361084
2019-04-20T03:50:40.691Z,11.351013
2019-04-20T03:50:56.266Z,11.361084
2019-04-20T03:51:23.426Z,11.361084
2019-04-20T03:51:39.590Z,11.371155
2019-04-20T03:51:57.194Z,11.361084